createdAt,value
2022-10-01T00:01:00.570Z,7.69
2022-10-01T00:06:27.583Z,7.62
2022-10-01T00:11:55.595Z,7.60
2022-10-01T00:17:19.599Z,7.55
2022-10-01T00:22:50.585Z,7.48
2022-10-01T00:28:18.666Z,7.48
2022-10-01T00:33:43.567Z,7.49
2022-10-01T00:39:09.599Z,7.43
2022-10-01T00:44:48.599Z,7.40
2022-10-01T00:50:19.618Z,7.37
2022-10-01T00:55:48.624Z,7.36
2022-10-01T01:01:16.706Z,7.33
2022-10-01T01:06:40.574Z,7.30
2022-10-01T01:12:16.608Z,7.26
2022-10-01T01:17:49.611Z,7.21
2022-10-01T01:23:33.614Z,7.18
2022-10-01T01:29:04.629Z,7.13
2022-10-01T01:34:33.618Z,7.07
2022-10-01T01:40:08.648Z,7.06
2022-10-01T01:45:40.772Z,7.08
2022-10-01T01:51:10.707Z,7.12
2022-10-01T01:56:35.618Z,7.14
2022-10-01T02:02:02.728Z,7.19
2022-10-01T02:07:41.745Z,7.21
2022-10-01T02:13:20.653Z,7.21
2022-10-01T02:18:57.677Z,7.19
2022-10-01T02:24:31.618Z,7.18
2022-10-01T02:29:58.691Z,7.18
2022-10-01T02:35:29.649Z,7.14
2022-10-01T02:40:56.666Z,7.12
2022-10-01T02:46:28.718Z,7.09
2022-10-01T02:52:03.651Z,7.08
2022-10-01T02:57:33.703Z,7.14
2022-10-01T03:02:59.765Z,7.21
2022-10-01T03:08:34.653Z,7.28
2022-10-01T03:14:03.655Z,7.35
2022-10-01T03:19:27.682Z,7.38
2022-10-01T03:24:55.684Z,7.45
2022-10-01T03:30:21.767Z,7.49
2022-10-01T03:35:46.670Z,7.56
2022-10-01T03:41:13.661Z,7.63
2022-10-01T03:46:38.690Z,7.67
2022-10-01T03:52:03.769Z,7.70
2022-10-01T03:57:30.774Z,7.72
2022-10-01T04:02:55.722Z,7.71
2022-10-01T04:08:27.730Z,7.72
2022-10-01T04:13:55.844Z,7.74
2022-10-01T04:19:19.712Z,7.72
2022-10-01T04:24:44.818Z,7.74
2022-10-01T04:30:14.700Z,7.72
2022-10-01T04:35:39.772Z,7.75
2022-10-01T04:41:03.679Z,7.79
2022-10-01T04:46:31.790Z,7.81
2022-10-01T04:51:55.712Z,7.81
2022-10-01T04:57:20.694Z,7.82
2022-10-01T05:02:51.909Z,7.82
2022-10-01T05:08:16.819Z,7.83
2022-10-01T05:13:41.743Z,7.85
2022-10-01T05:19:10.717Z,7.89
2022-10-01T05:24:35.735Z,7.95
2022-10-01T05:30:00.765Z,8.07
2022-10-01T05:35:27.808Z,8.21
2022-10-01T05:40:55.766Z,8.35
2022-10-01T05:46:21.786Z,8.46
2022-10-01T05:51:49.828Z,8.55
2022-10-01T05:57:17.808Z,8.60
2022-10-01T06:02:42.878Z,8.63
2022-10-01T06:08:09.830Z,8.67
2022-10-01T06:13:34.823Z,8.67
2022-10-01T06:19:03.962Z,8.71
2022-10-01T06:24:31.757Z,8.70
2022-10-01T06:29:55.768Z,8.73
2022-10-01T06:35:21.796Z,8.77
2022-10-01T06:40:50.762Z,8.81
2022-10-01T06:46:15.890Z,8.84
2022-10-01T06:51:53.792Z,8.92
2022-10-01T06:57:21.912Z,9.00
2022-10-01T07:02:45.845Z,9.08
2022-10-01T07:08:16.799Z,9.14
2022-10-01T07:13:44.782Z,9.24
2022-10-01T07:19:09.821Z,9.33
2022-10-01T07:24:34.783Z,9.43
2022-10-01T07:30:05.803Z,9.50
2022-10-01T07:35:31.804Z,9.60
2022-10-01T07:40:55.838Z,9.68
2022-10-01T07:46:23.812Z,9.76
2022-10-01T07:51:49.826Z,9.80
2022-10-01T07:57:14.822Z,9.87
2022-10-01T08:02:42.836Z,9.87
2022-10-01T08:08:14.837Z,9.86
2022-10-01T08:13:41.784Z,9.92
2022-10-01T08:19:08.823Z,10.00
2022-10-01T08:24:33.808Z,10.05
2022-10-01T08:29:58.048Z,10.07
2022-10-01T08:35:26.932Z,10.05
2022-10-01T08:40:57.829Z,9.98
2022-10-01T08:46:24.811Z,9.88
2022-10-01T08:52:01.092Z,9.79
2022-10-01T08:57:28.837Z,9.74
2022-10-01T09:02:55.821Z,9.66
2022-10-01T09:08:49.848Z,9.58
2022-10-01T09:14:37.835Z,9.52
2022-10-01T09:20:12.001Z,9.50
2022-10-01T09:25:39.829Z,9.50
2022-10-01T09:31:09.885Z,9.49
2022-10-01T09:36:41.859Z,9.49
2022-10-01T09:42:09.889Z,9.52
2022-10-01T09:47:35.822Z,9.54
2022-10-01T09:53:01.843Z,9.62
2022-10-01T09:58:32.865Z,9.66
2022-10-01T10:04:05.841Z,9.70
2022-10-01T10:09:44.860Z,9.76
2022-10-01T10:15:20.862Z,9.81
2022-10-01T10:20:47.904Z,9.87
2022-10-01T10:26:16.097Z,9.93
2022-10-01T10:31:47.000Z,9.99
2022-10-01T10:37:16.874Z,9.95
2022-10-01T10:42:46.020Z,9.97
2022-10-01T10:48:16.898Z,9.86
2022-10-01T10:53:43.966Z,9.79
2022-10-01T10:59:16.903Z,9.74
2022-10-01T11:04:53.896Z,9.67
2022-10-01T11:10:39.890Z,9.65
2022-10-01T11:16:21.018Z,9.60
2022-10-01T11:22:00.886Z,9.55
2022-10-01T11:27:34.929Z,9.61
2022-10-01T11:33:09.936Z,9.62
2022-10-01T11:38:53.904Z,9.65
2022-10-01T11:44:24.882Z,9.66
2022-10-01T11:50:01.923Z,9.71
2022-10-01T11:55:48.926Z,9.78
2022-10-01T12:01:19.987Z,9.91
2022-10-01T12:06:50.041Z,10.03
2022-10-01T12:12:23.941Z,10.14
2022-10-01T12:17:54.951Z,10.38
2022-10-01T12:23:24.913Z,10.62
2022-10-01T12:29:00.355Z,10.86
2022-10-01T12:34:35.949Z,11.17
2022-10-01T12:40:14.950Z,11.33
2022-10-01T12:45:53.067Z,11.32
2022-10-01T12:51:33.958Z,11.37
2022-10-01T12:57:10.962Z,11.33
2022-10-01T13:03:03.955Z,11.34
2022-10-01T13:08:52.010Z,11.33
2022-10-01T13:14:16.957Z,11.34
2022-10-01T13:19:54.981Z,11.28
2022-10-01T13:25:36.014Z,11.29
2022-10-01T13:31:08.011Z,11.35
2022-10-01T13:36:46.010Z,11.34
2022-10-01T13:42:14.967Z,11.35
2022-10-01T13:47:39.985Z,11.41
2022-10-01T13:53:23.955Z,11.38
2022-10-01T13:58:53.010Z,11.43
2022-10-01T14:04:28.991Z,11.49
2022-10-01T14:09:59.989Z,11.55
2022-10-01T14:15:40.073Z,11.54
2022-10-01T14:21:11.987Z,11.56
2022-10-01T14:26:45.009Z,11.56
2022-10-01T14:32:18.991Z,11.57
2022-10-01T14:37:46.994Z,11.59
2022-10-01T14:43:19.046Z,11.64
2022-10-01T14:48:47.022Z,11.69
2022-10-01T14:54:15.013Z,11.79
2022-10-01T14:59:47.019Z,11.87
2022-10-01T15:05:16.774Z,12.00
2022-10-01T15:10:44.018Z,12.05
2022-10-01T15:16:27.090Z,12.08
2022-10-01T15:21:58.041Z,12.06
2022-10-01T15:27:24.046Z,12.08
2022-10-01T15:32:52.062Z,12.13
2022-10-01T15:38:16.056Z,12.26
2022-10-01T15:43:46.029Z,12.20
2022-10-01T15:49:33.086Z,12.17
2022-10-01T15:55:08.077Z,12.22
2022-10-01T16:00:41.087Z,12.31
2022-10-01T16:06:11.041Z,12.57
2022-10-01T16:11:39.098Z,12.60
2022-10-01T16:17:36.063Z,12.52
2022-10-01T16:23:03.044Z,12.44
2022-10-01T16:28:37.045Z,12.33
2022-10-01T16:34:01.059Z,12.30
2022-10-01T16:39:30.075Z,12.26
2022-10-01T16:44:55.107Z,12.24
2022-10-01T16:50:22.108Z,12.21
2022-10-01T16:55:52.071Z,12.05
2022-10-01T17:01:18.136Z,11.86
2022-10-01T17:06:42.102Z,11.71
2022-10-01T17:12:10.092Z,11.66
2022-10-01T17:17:34.115Z,11.53
2022-10-01T17:23:01.081Z,11.41
2022-10-01T17:33:54.081Z,11.18
2022-10-01T17:39:18.133Z,11.08
2022-10-01T17:44:43.146Z,10.99
2022-10-01T17:50:10.141Z,10.93
2022-10-01T17:55:35.127Z,10.89
2022-10-01T18:01:01.171Z,10.83
2022-10-01T18:06:30.086Z,10.76
2022-10-01T18:11:54.176Z,10.72
2022-10-01T18:17:19.143Z,10.68
2022-10-01T18:22:47.250Z,10.71
2022-10-01T18:28:12.202Z,10.73
2022-10-01T18:33:37.122Z,10.78
2022-10-01T18:39:13.147Z,10.81
2022-10-01T18:44:39.148Z,10.84
2022-10-01T18:50:20.142Z,10.82
2022-10-01T18:56:05.503Z,10.84
2022-10-01T19:01:39.215Z,10.89
2022-10-01T19:07:12.190Z,10.89
2022-10-01T19:12:53.139Z,10.88
2022-10-01T19:18:48.151Z,10.88
2022-10-01T19:24:41.143Z,10.83
2022-10-01T19:30:18.153Z,10.81
2022-10-01T19:35:47.175Z,10.92
2022-10-01T19:41:15.188Z,11.01
2022-10-01T19:46:52.180Z,11.04
2022-10-01T19:52:25.147Z,11.09
2022-10-01T19:57:50.196Z,11.08
2022-10-01T20:03:21.211Z,11.03
2022-10-01T20:08:50.165Z,10.96
2022-10-01T20:14:46.200Z,10.89
2022-10-01T20:20:20.194Z,10.88
2022-10-01T20:25:52.254Z,10.85
2022-10-01T20:31:27.234Z,10.70
2022-10-01T20:37:01.191Z,10.64
2022-10-01T20:42:34.581Z,10.56
2022-10-01T20:48:17.418Z,10.49
2022-10-01T20:54:04.735Z,10.38
2022-10-01T20:59:44.914Z,10.26
2022-10-01T21:05:15.286Z,10.20
2022-10-01T21:10:52.253Z,10.11
2022-10-01T21:16:36.043Z,10.07
2022-10-01T21:22:14.254Z,10.06
2022-10-01T21:27:58.254Z,9.99
2022-10-01T21:33:31.401Z,10.04
